Time;durP1;ratioP1;P1;durP2;ratioP2;P2;SDS_P1;SDS_P2;PMS_P1;PMS_P2;Temp;Humidity;BMP_temperature;BMP_pressure;BME280_temperature;BME280_humidity;BME280_pressure;Samples;Min_cycle;Max_cycle;Signal;HPM_P1;HPM_P2
2021/05/25 00:00:00;;;;;;;2.67;0.77;;;;;;;14.39;51.63;97612.19;8289167;28;20211;-68
2021/05/25 00:04:03;;;;;;;3.57;0.70;;;;;;;14.47;51.92;97625.53;8287931;28;20216;-69
2021/05/25 00:08:06;;;;;;;1.00;0.60;;;;;;;14.46;52.00;97649.91;8288764;28;20552;-69
2021/05/25 00:12:08;;;;;;;0.87;0.60;;;;;;;14.28;51.45;97656.31;8288998;28;20205;-69
2021/05/25 00:16:11;;;;;;;1.17;0.60;;;;;;;14.27;49.82;97650.25;8288357;28;20212;-68
2021/05/25 00:20:15;;;;;;;0.77;0.47;;;;;;;14.07;49.32;97651.53;8288169;28;20201;-69
2021/05/25 00:24:18;;;;;;;1.77;0.60;;;;;;;14.11;49.38;97657.41;8287499;28;20215;-69
2021/05/25 00:28:20;;;;;;;1.53;0.70;;;;;;;14.19;49.22;97651.69;8288500;28;20225;-69
2021/05/25 00:32:24;;;;;;;1.43;0.70;;;;;;;14.15;49.36;97634.59;8287939;28;20461;-69
2021/05/25 00:36:27;;;;;;;1.33;0.57;;;;;;;14.10;49.45;97647.91;8288961;28;20213;-68
2021/05/25 00:40:29;;;;;;;2.47;0.40;;;;;;;14.20;49.20;97666.38;8320469;28;20208;-69
2021/05/25 00:44:31;;;;;;;2.70;0.90;;;;;;;13.97;49.41;97671.25;8320229;28;20201;-69
2021/05/25 00:48:35;;;;;;;2.53;0.70;;;;;;;13.92;49.44;97680.28;8319808;28;20239;-69
2021/05/25 00:52:42;;;;;;;1.60;0.60;;;;;;;13.95;49.15;97685.31;8320119;28;20398;-69
2021/05/25 00:56:44;;;;;;;2.37;0.77;;;;;;;14.02;49.55;97678.81;8319972;28;20211;-69
2021/05/25 01:00:48;;;;;;;3.90;0.97;;;;;;;14.06;48.27;97686.31;8319963;28;20205;-69
2021/05/25 01:04:51;;;;;;;2.00;0.70;;;;;;;14.00;48.06;97688.47;8292139;28;20221;-69
2021/05/25 01:08:55;;;;;;;1.77;0.70;;;;;;;14.02;48.14;97691.81;8286894;28;20253;-69
2021/05/25 01:13:03;;;;;;;1.30;0.60;;;;;;;14.05;48.12;97694.22;8286926;28;20208;-69
2021/05/25 01:17:06;;;;;;;1.03;0.57;;;;;;;13.85;48.09;97687.66;8286913;28;20206;-69
2021/05/25 01:21:12;;;;;;;2.57;0.70;;;;;;;13.85;47.89;97703.28;8286595;28;20205;-69
2021/05/25 01:25:17;;;;;;;2.27;0.80;;;;;;;13.65;48.24;97710.56;8286718;28;20205;-69
2021/05/25 01:29:19;;;;;;;1.57;0.60;;;;;;;13.84;47.98;97691.19;8286392;28;20240;-69
2021/05/25 01:33:28;;;;;;;2.37;0.80;;;;;;;13.79;48.02;97672.44;8286008;28;20217;-69
2021/05/25 01:37:30;;;;;;;1.03;0.57;;;;;;;13.83;47.85;97690.34;8286210;28;20209;-69
2021/05/25 01:41:34;;;;;;;1.80;0.70;;;;;;;13.81;47.96;97687.00;8285606;28;20201;-69
2021/05/25 01:45:37;;;;;;;2.33;0.80;;;;;;;13.86;47.89;97697.16;8285637;28;20206;-69
2021/05/25 01:49:40;;;;;;;2.97;0.60;;;;;;;13.95;47.79;97700.94;8285776;28;20201;-69
2021/05/25 01:53:42;;;;;;;1.70;0.87;;;;;;;13.71;48.94;97711.94;8285669;28;20202;-69
2021/05/25 01:57:45;;;;;;;4.07;0.90;;;;;;;13.81;48.73;97704.41;8285604;28;20209;-69
2021/05/25 02:01:48;;;;;;;3.10;0.90;;;;;;;13.82;49.10;97703.47;8285148;28;20409;-68
2021/05/25 02:05:50;;;;;;;2.37;0.70;;;;;;;13.97;49.02;97697.28;8285262;28;20221;-69
2021/05/25 02:09:53;;;;;;;3.80;0.90;;;;;;;13.94;49.25;97681.88;8284978;28;20229;-69
2021/05/25 02:13:56;;;;;;;2.30;0.80;;;;;;;13.79;49.80;97681.06;8284988;28;20201;-69
2021/05/25 02:18:05;;;;;;;1.70;0.63;;;;;;;13.82;49.66;97698.25;8284646;28;20213;-69
2021/05/25 02:22:09;;;;;;;3.10;0.80;;;;;;;13.79;49.88;97706.28;8285056;28;20202;-69
2021/05/25 02:26:12;;;;;;;1.67;0.73;;;;;;;13.59;50.75;97710.06;8284708;28;20236;-68
2021/05/25 02:30:16;;;;;;;1.40;0.60;;;;;;;13.64;50.71;97715.84;8284933;28;20309;-69
2021/05/25 02:34:19;;;;;;;0.83;0.53;;;;;;;13.59;50.95;97715.28;8284976;28;20209;-69
2021/05/25 02:38:22;;;;;;;2.53;0.67;;;;;;;13.65;50.54;97715.75;8284503;28;20227;-69
2021/05/25 02:42:25;;;;;;;2.20;0.70;;;;;;;13.45;51.59;97713.50;8284467;28;20205;-69
2021/05/25 02:46:28;;;;;;;1.83;0.80;;;;;;;13.30;51.78;97717.88;8291481;28;20224;-68
2021/05/25 02:50:31;;;;;;;2.07;0.70;;;;;;;13.23;51.88;97708.72;8295144;28;20399;-69
2021/05/25 02:54:33;;;;;;;2.63;0.93;;;;;;;13.22;51.81;97714.84;8294992;28;20522;-69
2021/05/25 02:58:35;;;;;;;2.23;0.70;;;;;;;13.25;51.61;97733.72;8295041;28;20209;-69
2021/05/25 03:02:39;;;;;;;2.90;1.00;;;;;;;13.19;51.74;97728.84;8295082;28;20208;-68
2021/05/25 03:06:41;;;;;;;1.57;0.80;;;;;;;13.17;51.81;97737.69;8294834;28;20445;-69
2021/05/25 03:10:45;;;;;;;1.87;0.60;;;;;;;13.25;51.36;97749.31;8295077;28;20422;-68
2021/05/25 03:14:48;;;;;;;1.33;0.60;;;;;;;13.06;52.14;97746.94;8294681;28;20202;-68
2021/05/25 03:18:51;;;;;;;1.20;0.80;;;;;;;13.25;51.36;97748.47;8295086;28;20209;-69
2021/05/25 03:22:54;;;;;;;2.10;0.73;;;;;;;13.12;51.54;97753.56;8294377;28;20201;-69
2021/05/25 03:26:56;;;;;;;3.10;0.83;;;;;;;13.06;51.58;97759.94;8294323;28;20236;-69
2021/05/25 03:30:59;;;;;;;1.03;0.60;;;;;;;12.85;52.39;97754.22;8294577;28;20208;-69
2021/05/25 03:35:03;;;;;;;2.17;0.90;;;;;;;12.81;51.76;97747.53;8294478;28;20202;-68
2021/05/25 03:39:06;;;;;;;2.27;0.80;;;;;;;12.86;51.67;97750.69;8294532;28;20206;-68
2021/05/25 03:43:08;;;;;;;2.10;0.83;;;;;;;12.64;51.84;97742.41;8294731;28;20201;-68
2021/05/25 03:47:11;;;;;;;1.73;0.80;;;;;;;12.64;51.76;97738.09;8303303;28;20220;-69
2021/05/25 03:51:14;;;;;;;2.70;0.73;;;;;;;13.02;50.94;97750.66;8327023;28;20506;-69
2021/05/25 03:55:25;;;;;;;2.63;1.00;;;;;;;12.96;50.91;97763.16;8326596;28;20212;-68
2021/05/25 03:59:28;;;;;;;1.87;0.93;;;;;;;12.87;51.03;97769.69;8320962;28;20228;-69
2021/05/25 04:03:30;;;;;;;2.57;0.90;;;;;;;12.94;51.03;97778.84;8305428;28;20202;-69
2021/05/25 04:07:33;;;;;;;2.33;1.10;;;;;;;12.97;51.20;97777.84;8288787;28;20246;-69
2021/05/25 04:11:36;;;;;;;3.37;1.10;;;;;;;12.81;51.39;97783.06;8288884;28;20201;-69
2021/05/25 04:15:43;;;;;;;3.97;0.87;;;;;;;12.85;51.13;97790.59;8288411;28;20205;-69
2021/05/25 04:19:45;;;;;;;4.80;0.93;;;;;;;12.90;50.97;97793.75;8288874;28;20194;-69
2021/05/25 04:23:48;;;;;;;2.87;1.10;;;;;;;12.93;50.96;97797.09;8288516;28;20205;-69
2021/05/25 04:27:51;;;;;;;2.03;0.80;;;;;;;12.97;50.77;97791.66;8288309;28;20229;-69
2021/05/25 04:31:53;;;;;;;5.40;1.40;;;;;;;12.93;51.04;97810.09;8288488;28;20600;-69
2021/05/25 04:35:56;;;;;;;3.63;1.03;;;;;;;12.72;51.18;97807.81;8287770;28;20202;-69
2021/05/25 04:39:59;;;;;;;3.43;0.80;;;;;;;12.75;51.29;97807.63;8288048;28;20205;-69
2021/05/25 04:44:02;;;;;;;2.40;0.90;;;;;;;12.63;51.72;97803.13;8287927;28;20224;-69
2021/05/25 04:48:05;;;;;;;3.63;1.10;;;;;;;12.70;51.29;97812.25;8287867;28;20300;-69
2021/05/25 04:52:08;;;;;;;2.77;0.90;;;;;;;12.79;50.88;97806.50;8287592;28;20220;-69
2021/05/25 04:56:11;;;;;;;4.67;1.03;;;;;;;12.74;50.95;97799.91;8287489;28;20214;-69
2021/05/25 05:00:15;;;;;;;5.60;1.07;;;;;;;12.61;51.42;97800.59;8287381;28;20201;-69
2021/05/25 05:04:18;;;;;;;4.20;1.03;;;;;;;12.85;51.10;97805.34;8287114;28;20389;-69
2021/05/25 05:08:20;;;;;;;1.70;0.90;;;;;;;12.89;50.79;97812.91;8286338;28;20270;-69
2021/05/25 05:12:25;;;;;;;4.13;1.00;;;;;;;12.99;50.68;97805.41;8286917;28;20209;-69
2021/05/25 05:16:28;;;;;;;3.13;0.90;;;;;;;13.06;50.78;97798.09;8286903;28;20227;-69
2021/05/25 05:20:30;;;;;;;3.37;1.33;;;;;;;13.23;50.36;97797.97;8286398;28;20212;-69
2021/05/25 05:24:32;;;;;;;2.33;1.00;;;;;;;13.15;50.14;97797.56;8286418;28;20388;-69
2021/05/25 05:28:36;;;;;;;3.77;1.00;;;;;;;13.32;49.93;97814.00;8286482;28;20296;-69
2021/05/25 05:32:38;;;;;;;3.70;1.00;;;;;;;13.29;49.92;97807.19;8285359;28;20261;-69
2021/05/25 05:36:42;;;;;;;2.27;0.93;;;;;;;13.10;50.29;97805.63;8285695;28;20217;-69
2021/05/25 05:40:44;;;;;;;5.03;1.30;;;;;;;13.08;50.48;97817.88;8283098;28;20301;-69
2021/05/25 05:44:48;;;;;;;2.97;1.00;;;;;;;12.97;50.95;97806.44;8285149;28;20198;-69
2021/05/25 05:48:51;;;;;;;2.90;0.90;;;;;;;12.79;51.36;97811.72;8345719;23;20244;-69
2021/05/25 05:52:53;;;;;;;1.80;0.80;;;;;;;13.00;51.14;97807.06;8301550;28;20201;-69
2021/05/25 05:56:56;;;;;;;3.13;0.90;;;;;;;12.74;51.39;97802.50;8302334;28;20205;-69
2021/05/25 06:00:59;;;;;;;5.47;1.30;;;;;;;12.84;51.39;97812.31;8323418;22;20573;-78
2021/05/25 06:05:01;;;;;;;3.93;1.10;;;;;;;12.87;51.58;97813.88;8334132;28;20197;-79
2021/05/25 06:09:05;;;;;;;3.03;1.30;;;;;;;12.90;51.50;97806.75;8332549;28;20259;-79
2021/05/25 06:13:07;;;;;;;4.27;1.20;;;;;;;13.08;51.16;97817.06;8332754;28;20288;-80
2021/05/25 06:17:10;;;;;;;2.60;1.10;;;;;;;13.18;50.89;97812.16;8331977;28;20197;-80
2021/05/25 06:21:13;;;;;;;4.23;1.27;;;;;;;13.13;51.85;97838.41;8321199;28;20504;-80
2021/05/25 06:25:16;;;;;;;1.07;0.60;;;;;;;13.10;50.78;97836.00;8316231;28;20484;-80
2021/05/25 06:29:19;;;;;;;2.37;0.97;;;;;;;13.10;51.79;97836.84;8316162;28;20229;-81
2021/05/25 06:33:22;;;;;;;4.17;1.47;;;;;;;13.39;51.40;97828.34;8316545;28;20200;-82
2021/05/25 06:37:24;;;;;;;3.53;1.20;;;;;;;13.24;50.85;97843.00;8316385;28;20350;-81
2021/05/25 06:41:27;;;;;;;2.87;1.07;;;;;;;13.29;52.06;97828.00;8316273;28;20201;-81
2021/05/25 06:45:30;;;;;;;2.70;1.00;;;;;;;13.63;49.68;97833.84;8315999;28;20200;-81
2021/05/25 06:49:33;;;;;;;4.17;1.20;;;;;;;14.08;48.40;97829.44;8316174;28;20225;-81
2021/05/25 06:53:36;;;;;;;3.30;0.97;;;;;;;14.57;46.59;97836.84;8315861;28;20211;-81
2021/05/25 06:57:39;;;;;;;2.47;0.97;;;;;;;14.20;46.08;97825.22;8315917;28;20216;-81
2021/05/25 07:01:41;;;;;;;3.17;1.70;;;;;;;13.97;47.72;97837.06;8317175;28;20536;-81
2021/05/25 07:05:44;;;;;;;2.37;0.77;;;;;;;13.41;49.25;97858.53;8348556;28;20204;-82
2021/05/25 07:09:47;;;;;;;4.17;1.17;;;;;;;13.05;54.39;97877.00;8348686;28;20235;-82
2021/05/25 07:13:49;;;;;;;1.87;0.80;;;;;;;12.23;58.87;97912.56;8348473;28;20510;-84
2021/05/25 07:17:56;;;;;;;2.27;0.50;;;;;;;12.41;56.88;97889.97;8348871;28;20388;-84
2021/05/25 07:22:00;;;;;;;1.43;0.50;;;;;;;12.37;56.75;97896.25;8348891;28;20274;-86
2021/05/25 07:26:04;;;;;;;2.63;0.80;;;;;;;12.43;57.87;97898.53;8333317;28;20204;-86
2021/05/25 07:30:09;;;;;;;2.10;1.87;;;;;;;13.63;53.73;97886.75;8340730;28;20280;-85
2021/05/25 07:34:11;;;;;;;2.07;0.93;;;;;;;14.37;51.89;97886.72;8353554;28;20193;-85
2021/05/25 07:38:14;;;;;;;2.17;0.80;;;;;;;14.59;51.07;97907.13;8353535;28;20205;-84
2021/05/25 07:42:17;;;;;;;1.57;0.67;;;;;;;15.11;50.70;97896.03;8353732;28;20200;-85
2021/05/25 07:46:22;;;;;;;4.73;1.00;;;;;;;15.47;50.82;97881.53;8353702;28;20201;-86
2021/05/25 07:50:25;;;;;;;3.33;0.80;;;;;;;15.59;48.67;97875.53;8356453;28;20228;-84
2021/05/25 07:54:28;;;;;;;1.93;0.80;;;;;;;15.40;51.70;97875.91;8357310;28;20200;-84
2021/05/25 07:58:31;;;;;;;7.40;1.13;;;;;;;16.99;52.70;97876.38;8354252;28;20208;-86
2021/05/25 08:02:35;;;;;;;3.10;0.90;;;;;;;16.92;47.76;97883.00;8345285;28;20299;-81
2021/05/25 08:06:38;;;;;;;4.83;0.80;;;;;;;17.11;44.58;97886.91;8355959;28;20207;-86
2021/05/25 08:10:41;;;;;;;2.17;0.70;;;;;;;17.31;43.82;97888.09;8356916;28;20232;-87
2021/05/25 08:14:44;;;;;;;1.80;0.80;;;;;;;17.75;42.02;97879.56;8357473;28;20207;-84
2021/05/25 08:18:53;;;;;;;5.73;0.87;;;;;;;17.65;41.36;97881.22;8360688;28;20211;-86
2021/05/25 08:22:58;;;;;;;2.63;0.87;;;;;;;16.93;38.77;97879.44;8360281;28;20303;-83
2021/05/25 08:27:02;;;;;;;4.63;0.77;;;;;;;16.18;38.86;97872.47;8360991;28;20206;-84
2021/05/25 08:31:16;;;;;;;5.40;1.00;;;;;;;16.81;38.43;97885.50;8360959;28;20394;-81
2021/05/25 08:35:19;;;;;;;1.70;0.80;;;;;;;16.26;40.55;97877.16;8361427;28;20227;-83
2021/05/25 08:39:21;;;;;;;1.60;0.70;;;;;;;16.30;37.75;97875.19;8358922;28;20208;-82
2021/05/25 08:43:25;;;;;;;3.47;1.10;;;;;;;16.02;37.66;97871.81;8356306;28;20203;-84
2021/05/25 08:47:30;;;;;;;2.60;0.80;;;;;;;16.62;35.99;97875.53;8357189;28;20448;-82
2021/05/25 08:51:33;;;;;;;4.20;1.23;;;;;;;16.22;38.05;97889.59;8357056;28;20200;-82
2021/05/25 08:55:37;;;;;;;1.17;0.80;;;;;;;15.99;38.43;97899.00;8357744;28;20208;-83
2021/05/25 08:59:42;;;;;;;2.10;1.00;;;;;;;15.73;40.12;97902.50;8356231;28;20263;-81
2021/05/25 09:03:58;;;;;;;7.80;1.10;;;;;;;16.00;38.95;97905.06;8355086;28;20232;-81
2021/05/25 09:08:01;;;;;;;2.50;0.63;;;;;;;15.78;39.99;97935.22;8356340;28;20220;-84
2021/05/25 09:12:06;;;;;;;2.83;0.93;;;;;;;16.52;39.23;97914.53;8356733;28;20224;-82
2021/05/25 09:16:10;;;;;;;3.00;0.80;;;;;;;17.02;38.91;97911.13;8356263;28;20222;-82
2021/05/25 09:20:13;;;;;;;0.73;0.50;;;;;;;17.20;37.70;97908.00;8354196;28;20310;-82
2021/05/25 09:24:16;;;;;;;1.53;0.80;;;;;;;17.79;36.96;97908.97;8355844;28;20208;-82
2021/05/25 09:28:20;;;;;;;1.77;0.77;;;;;;;16.69;37.66;97910.75;8355385;28;20259;-82
2021/05/25 09:32:24;;;;;;;4.30;0.73;;;;;;;16.06;38.39;97914.25;8353443;28;20208;-82
2021/05/25 09:36:27;;;;;;;1.93;0.50;;;;;;;15.87;39.95;97912.88;8355686;28;20392;-82
2021/05/25 09:40:33;;;;;;;3.43;0.60;;;;;;;15.44;41.02;97928.72;8356833;28;20204;-82
2021/05/25 09:44:37;;;;;;;1.53;0.70;;;;;;;15.31;41.63;97931.28;8355913;28;20208;-82
2021/05/25 09:48:56;;;;;;;4.90;0.63;;;;;;;14.76;42.43;97947.78;8355476;28;20297;-82
2021/05/25 09:53:06;;;;;;;1.43;0.70;;;;;;;14.78;43.37;97951.16;8354873;28;20302;-82
2021/05/25 09:57:10;;;;;;;2.43;0.80;;;;;;;16.11;40.52;97960.03;8354926;28;20302;-84
2021/05/25 10:01:13;;;;;;;6.57;0.67;;;;;;;15.99;41.46;97950.38;8356406;28;20232;-82
2021/05/25 10:05:16;;;;;;;2.53;0.90;;;;;;;15.42;42.31;97936.66;8356018;28;20200;-83
2021/05/25 10:09:20;;;;;;;1.57;0.70;;;;;;;15.47;42.45;97932.91;8354155;28;20231;-82
2021/05/25 10:13:25;;;;;;;2.60;0.70;;;;;;;14.92;43.08;97948.50;8321313;28;20205;-82
2021/05/25 10:17:43;;;;;;;2.50;0.77;;;;;;;14.97;44.08;97948.22;8320836;28;20201;-82
2021/05/25 10:21:46;;;;;;;1.97;0.80;;;;;;;15.58;43.18;97946.91;8319317;28;20208;-83
2021/05/25 10:25:52;;;;;;;2.30;0.50;;;;;;;15.09;40.91;97937.00;8320708;28;20514;-82
2021/05/25 10:29:54;;;;;;;3.83;0.50;;;;;;;15.75;39.46;97969.34;8319756;28;20236;-85
2021/05/25 10:34:17;;;;;;;3.53;0.50;;;;;;;15.61;39.32;97945.88;8322850;28;20208;-85
2021/05/25 10:38:23;;;;;;;2.20;0.60;;;;;;;15.57;39.97;97960.06;8323306;28;20204;-85
2021/05/25 10:42:31;;;;;;;2.07;0.77;;;;;;;14.76;40.30;97960.84;8322069;28;20204;-85
2021/05/25 10:47:18;;;;;;;1.47;0.70;;;;;;;15.50;40.79;97964.88;8319368;28;20215;-83
2021/05/25 10:51:21;;;;;;;8.40;0.80;;;;;;;15.31;40.98;97959.16;8320650;28;20295;-85
2021/05/25 10:55:28;;;;;;;1.70;0.67;;;;;;;15.45;41.11;97978.19;8320691;28;20213;-84
2021/05/25 11:00:01;;;;;;;4.30;1.20;;;;;;;14.93;41.87;97985.88;8318309;28;20398;-82
2021/05/25 11:04:07;;;;;;;3.47;0.70;;;;;;;15.55;41.71;97998.47;8343573;28;20239;-83
2021/05/25 11:08:29;;;;;;;4.47;0.90;;;;;;;15.24;41.48;97984.78;8364520;28;20232;-81
2021/05/25 11:12:33;;;;;;;3.73;0.80;;;;;;;15.68;41.14;97973.25;8363154;28;20257;-85
2021/05/25 11:16:37;;;;;;;1.60;0.70;;;;;;;15.66;41.43;97982.97;8365544;28;20204;-85
2021/05/25 11:20:54;;;;;;;3.83;0.60;;;;;;;16.01;39.93;97980.69;8364698;28;20204;-84
2021/05/25 11:25:01;;;;;;;1.63;0.70;;;;;;;16.06;39.89;97990.00;8364017;28;20204;-84
2021/05/25 11:29:19;;;;;;;4.07;0.80;;;;;;;15.70;39.51;97976.59;8364802;28;20254;-83
2021/05/25 11:33:31;;;;;;;4.07;0.80;;;;;;;16.14;39.01;97983.31;8364574;28;20215;-83
2021/05/25 11:37:36;;;;;;;5.47;0.93;;;;;;;16.28;38.69;97961.50;8364079;28;20199;-83
2021/05/25 11:41:39;;;;;;;2.73;0.80;;;;;;;16.40;38.65;97968.50;8362648;28;20485;-85
2021/05/25 11:45:44;;;;;;;2.40;1.00;;;;;;;16.02;38.40;97987.59;8363092;28;20280;-83
2021/05/25 11:49:47;;;;;;;3.77;1.10;;;;;;;16.10;38.47;97967.97;8363778;28;20220;-85
2021/05/25 11:53:50;;;;;;;2.67;0.60;;;;;;;16.26;37.09;97984.28;8365320;28;20264;-84
2021/05/25 11:57:56;;;;;;;2.60;1.10;;;;;;;16.29;37.80;97975.41;8364035;28;20208;-83
2021/05/25 12:02:02;;;;;;;4.00;1.20;;;;;;;16.96;37.69;97976.03;8360080;28;20229;-86
2021/05/25 12:06:14;;;;;;;4.47;1.10;;;;;;;16.74;37.33;97984.50;8329520;28;20220;-86
2021/05/25 12:10:19;;;;;;;2.83;0.90;;;;;;;16.98;36.54;97984.59;8330960;28;20265;-85
2021/05/25 12:14:28;;;;;;;2.27;0.93;;;;;;;17.07;35.77;97977.03;8330995;28;20304;-85
2021/05/25 12:18:37;;;;;;;2.70;1.07;;;;;;;16.89;36.35;97985.25;8329873;28;20225;-86
2021/05/25 12:22:40;;;;;;;8.87;4.53;;;;;;;17.45;36.50;97986.56;8361046;28;20207;-84
2021/05/25 12:26:49;;;;;;;6.73;2.50;;;;;;;17.21;36.29;97987.38;8363934;28;20295;-87
2021/05/25 12:30:53;;;;;;;6.47;1.43;;;;;;;17.79;35.08;97993.63;8363666;28;20227;-88
2021/05/25 12:34:57;;;;;;;4.40;1.67;;;;;;;17.44;35.79;98000.56;8357749;28;20391;-85
2021/05/25 12:39:04;;;;;;;4.20;1.00;;;;;;;17.01;37.18;98007.09;8348281;28;20203;-85
2021/05/25 12:43:21;;;;;;;3.63;1.13;;;;;;;16.03;39.01;98023.22;8343441;28;20340;-86
2021/05/25 12:47:24;;;;;;;6.50;1.10;;;;;;;15.22;43.03;98049.25;8346078;28;20207;-85
2021/05/25 12:51:28;;;;;;;4.33;0.80;;;;;;;14.20;49.54;98076.13;8335622;28;20224;-85
2021/05/25 12:55:31;;;;;;;2.63;0.67;;;;;;;14.46;50.33;98056.34;8330024;28;20207;-85
2021/05/25 12:59:34;;;;;;;1.03;0.50;;;;;;;15.41;47.79;98054.16;8326616;28;20210;-84
2021/05/25 13:03:36;;;;;;;3.60;0.40;;;;;;;16.26;45.31;98033.94;8339425;28;20426;-82
2021/05/25 13:07:51;;;;;;;1.73;0.43;;;;;;;16.85;44.90;98045.69;8354996;28;20216;-84
2021/05/25 13:12:00;;;;;;;2.23;0.70;;;;;;;16.48;41.89;98019.41;8354711;28;20247;-83
2021/05/25 13:16:04;;;;;;;2.97;0.70;;;;;;;16.95;41.35;98031.88;8354672;28;20196;-83
2021/05/25 13:20:19;;;;;;;1.43;0.50;;;;;;;17.14;39.88;98036.69;8357248;28;20257;-85
2021/05/25 13:24:22;;;;;;;3.60;0.90;;;;;;;16.52;40.26;98047.03;8356034;28;20188;-83
2021/05/25 13:28:24;;;;;;;5.30;1.10;;;;;;;16.59;41.45;98030.81;8353176;28;20575;-83
2021/05/25 13:32:27;;;;;;;1.27;0.73;;;;;;;16.50;40.59;98039.28;8354851;28;20200;-83
2021/05/25 13:36:32;;;;;;;4.97;1.53;;;;;;;16.45;41.15;98036.16;8356718;28;20523;-83
2021/05/25 13:40:35;;;;;;;4.83;1.00;;;;;;;16.30;40.14;98037.19;8355273;28;20208;-83
2021/05/25 13:44:38;;;;;;;3.33;1.97;;;;;;;16.19;39.06;98036.09;8355470;28;20204;-83
2021/05/25 13:48:40;;;;;;;5.17;2.03;;;;;;;15.86;39.51;98038.31;8354354;28;20549;-84
2021/05/25 13:52:43;;;;;;;4.80;1.27;;;;;;;15.78;39.00;98055.31;8352822;28;20219;-82
2021/05/25 13:56:48;;;;;;;2.33;0.90;;;;;;;15.64;39.33;98040.50;8354471;28;20201;-83
2021/05/25 14:01:02;;;;;;;5.00;1.40;;;;;;;15.67;39.00;98028.19;8353935;28;20231;-83
2021/05/25 14:05:05;;;;;;;1.87;1.03;;;;;;;16.03;39.30;98030.22;8353615;28;20197;-84
2021/05/25 14:09:08;;;;;;;2.43;1.00;;;;;;;15.88;39.80;98049.50;8352244;28;20236;-84
2021/05/25 14:13:12;;;;;;;2.90;1.10;;;;;;;16.27;38.30;98012.06;8353148;28;20404;-82
2021/05/25 14:17:14;;;;;;;5.10;0.97;;;;;;;15.84;38.06;98009.72;8353440;28;20227;-82
2021/05/25 14:21:17;;;;;;;2.37;1.00;;;;;;;16.70;37.25;98001.34;8353140;28;20214;-82
2021/05/25 14:25:19;;;;;;;6.60;1.30;;;;;;;16.88;37.33;98008.88;8351858;28;20211;-83
2021/05/25 14:29:24;;;;;;;3.13;1.00;;;;;;;16.96;38.14;97999.56;8352244;28;20228;-83
2021/05/25 14:33:27;;;;;;;3.43;0.97;;;;;;;17.15;36.07;98003.47;8353372;28;20201;-83
2021/05/25 14:37:29;;;;;;;3.07;1.10;;;;;;;17.45;35.35;98000.47;8354247;28;20264;-84
2021/05/25 14:41:32;;;;;;;4.00;1.10;;;;;;;17.17;35.43;98010.31;8354320;28;20204;-84
2021/05/25 14:45:35;;;;;;;5.47;1.27;;;;;;;17.41;35.23;98000.81;8353710;28;20207;-84
2021/05/25 14:49:38;;;;;;;2.93;1.13;;;;;;;17.44;35.15;98001.44;8352017;28;20239;-84
2021/05/25 14:53:43;;;;;;;4.43;1.30;;;;;;;17.56;35.70;98003.16;8352217;28;20196;-84
2021/05/25 14:57:46;;;;;;;6.57;1.50;;;;;;;17.81;36.65;98003.16;8353633;28;20192;-85
2021/05/25 15:01:53;;;;;;;6.20;1.43;;;;;;;17.34;36.49;98000.41;8353398;28;20231;-85
2021/05/25 15:06:02;;;;;;;5.00;1.20;;;;;;;16.96;36.91;97985.63;8349010;28;20405;-83
2021/05/25 15:10:08;;;;;;;5.60;1.50;;;;;;;16.74;37.90;98007.19;8350408;28;20395;-83
2021/05/25 15:14:10;;;;;;;5.00;1.10;;;;;;;16.75;37.07;98001.00;8349662;28;20230;-83
2021/05/25 15:18:13;;;;;;;6.63;1.10;;;;;;;17.09;36.85;97998.69;8351728;28;20456;-84
2021/05/25 15:22:16;;;;;;;4.73;1.20;;;;;;;17.00;36.38;97990.56;8352526;28;20280;-83
2021/05/25 15:26:19;;;;;;;2.70;1.10;;;;;;;16.61;36.84;97987.09;8354976;28;20207;-84
2021/05/25 15:30:33;;;;;;;3.13;1.00;;;;;;;16.28;36.95;97985.03;8355477;28;20228;-82
2021/05/25 15:34:36;;;;;;;2.07;0.90;;;;;;;16.71;36.95;97983.84;8352350;28;20215;-83
2021/05/25 15:38:40;;;;;;;3.37;1.20;;;;;;;17.27;35.64;97984.31;8353248;28;20264;-83
2021/05/25 15:42:42;;;;;;;3.07;1.00;;;;;;;16.73;35.05;97976.75;8349099;28;20196;-81
2021/05/25 15:46:45;;;;;;;6.90;1.10;;;;;;;17.15;34.86;97966.84;8319301;28;20207;-83
2021/05/25 15:50:49;;;;;;;3.77;1.20;;;;;;;16.97;33.52;97971.63;8321522;28;20236;-84
2021/05/25 15:54:51;;;;;;;3.00;0.97;;;;;;;16.67;33.11;97966.72;8325687;28;20209;-83
2021/05/25 15:58:54;;;;;;;4.17;1.10;;;;;;;16.48;33.98;97972.38;8329645;28;20197;-83
2021/05/25 16:02:57;;;;;;;3.37;1.20;;;;;;;16.23;34.94;97963.59;8341520;28;20228;-84
2021/05/25 16:07:02;;;;;;;6.03;1.23;;;;;;;16.14;35.66;97988.53;8362025;28;20201;-83
2021/05/25 16:11:08;;;;;;;9.17;1.57;;;;;;;14.91;46.39;98095.47;8356831;28;20246;-86
2021/05/25 16:15:12;;;;;;;2.53;0.97;;;;;;;14.99;47.80;98029.81;8358054;28;20203;-85
2021/05/25 16:19:14;;;;;;;3.17;1.20;;;;;;;15.01;49.22;98012.31;8354094;28;20204;-83
2021/05/25 16:23:18;;;;;;;3.67;0.80;;;;;;;15.18;47.47;98011.25;8353153;28;20371;-84
2021/05/25 16:27:38;;;;;;;1.80;1.00;;;;;;;15.55;50.56;98014.97;8354243;28;20243;-84
2021/05/25 16:31:41;;;;;;;2.43;0.80;;;;;;;15.69;46.37;98011.50;8354596;28;20224;-84
2021/05/25 16:35:43;;;;;;;2.97;0.80;;;;;;;15.44;48.12;98009.63;8354088;28;20204;-84
2021/05/25 16:39:48;;;;;;;4.80;0.80;;;;;;;15.44;45.94;98005.22;8352234;28;20204;-84
2021/05/25 16:43:51;;;;;;;2.13;0.80;;;;;;;15.43;44.87;98002.72;8352781;28;20452;-85
2021/05/25 16:47:53;;;;;;;2.93;0.70;;;;;;;15.64;46.00;98008.34;8353388;28;20568;-84
2021/05/25 16:51:55;;;;;;;4.13;1.10;;;;;;;15.58;44.93;98016.56;8354359;28;20235;-84
2021/05/25 16:56:01;;;;;;;3.03;1.00;;;;;;;15.25;45.27;98009.94;8352484;28;20219;-82
2021/05/25 17:00:06;;;;;;;3.60;0.90;;;;;;;15.36;45.66;98004.84;8352402;28;20211;-81
2021/05/25 17:04:30;;;;;;;3.80;1.20;;;;;;;15.34;45.71;98006.72;8350933;28;20228;-79
2021/05/25 17:13:09;;;;;;;2.73;1.00;;;;;;;15.30;41.72;98002.66;8336030;28;20192;-83
2021/05/25 17:17:26;;;;;;;2.60;1.30;;;;;;;15.41;42.00;97997.59;8335296;28;20199;-80
2021/05/25 17:21:28;;;;;;;2.43;1.03;;;;;;;15.44;41.86;97994.78;8334914;28;20208;-82
2021/05/25 17:29:52;;;;;;;2.77;0.80;;;;;;;15.40;39.63;97992.47;8335947;28;20411;-80
2021/05/25 17:33:55;;;;;;;2.80;1.13;;;;;;;15.37;39.15;98001.34;8336365;28;20192;-80
2021/05/25 17:37:57;;;;;;;6.60;3.97;;;;;;;15.36;39.65;98004.03;8334385;28;20391;-80
2021/05/25 17:42:00;;;;;;;4.10;1.30;;;;;;;15.14;39.89;97999.34;8331448;28;20388;-78
2021/05/25 17:46:03;;;;;;;6.47;1.10;;;;;;;15.02;39.06;98000.91;8318093;28;20201;-78
2021/05/25 17:50:09;;;;;;;3.33;1.13;;;;;;;15.09;39.32;98002.22;8318136;28;20520;-81
2021/05/25 17:54:12;;;;;;;3.17;1.10;;;;;;;15.11;39.72;98002.97;8336406;28;20479;-80
2021/05/25 17:58:14;;;;;;;2.40;0.90;;;;;;;15.11;39.98;98004.75;8335220;28;20288;-80
2021/05/25 18:02:17;;;;;;;4.27;0.93;;;;;;;14.97;39.94;98005.59;8333557;28;20295;-81
2021/05/25 18:06:21;;;;;;;3.83;1.03;;;;;;;14.95;40.97;98005.69;8337646;28;20197;-82
2021/05/25 18:10:24;;;;;;;2.23;1.10;;;;;;;15.04;40.96;98007.72;8339323;28;20232;-80
2021/05/25 18:14:46;;;;;;;3.70;1.10;;;;;;;14.96;41.82;98011.72;8330586;28;20192;-80
2021/05/25 18:18:49;;;;;;;6.73;1.30;;;;;;;14.99;41.26;98012.38;8332228;28;20231;-80
2021/05/25 18:22:51;;;;;;;4.57;1.33;;;;;;;15.00;41.30;98016.69;8330950;28;20387;-80
2021/05/25 18:26:55;;;;;;;2.93;1.20;;;;;;;14.98;40.96;98013.34;8349724;28;20210;-80
2021/05/25 18:31:21;;;;;;;3.37;1.10;;;;;;;15.00;41.11;98016.69;8351528;28;20236;-80
2021/05/25 18:35:31;;;;;;;9.67;1.57;;;;;;;15.57;52.14;98020.09;8349781;28;20208;-80
2021/05/25 18:43:56;;;;;;;8.70;2.30;;;;;;;16.23;49.09;98021.06;8345719;28;20212;-79
2021/05/25 18:47:58;;;;;;;4.97;1.53;;;;;;;16.52;48.73;98021.72;8350030;28;20196;-80
2021/05/25 18:52:02;;;;;;;8.27;1.23;;;;;;;16.58;47.70;98029.16;8328117;28;20416;-80
2021/05/25 18:56:04;;;;;;;4.03;1.23;;;;;;;16.67;45.67;98034.69;8321484;28;20212;-80
2021/05/25 19:00:10;;;;;;;5.83;1.50;;;;;;;16.71;44.72;98036.97;8350126;28;20265;-81
2021/05/25 19:04:13;;;;;;;5.53;1.47;;;;;;;16.37;41.25;98035.81;8329813;28;20209;-80
2021/05/25 19:08:17;;;;;;;3.53;1.27;;;;;;;15.99;41.13;98034.81;8341041;28;20360;-80
2021/05/25 19:12:20;;;;;;;3.70;1.43;;;;;;;15.78;40.51;98044.88;8332631;28;20555;-80
2021/05/25 19:16:23;;;;;;;3.27;1.30;;;;;;;15.51;41.16;98046.59;8316877;28;20233;-80
2021/05/25 19:20:29;;;;;;;5.17;1.70;;;;;;;15.36;41.19;98051.00;8316049;28;20204;-82
2021/05/25 19:24:37;;;;;;;3.73;1.40;;;;;;;15.26;41.38;98050.75;8333458;28;20211;-81